sensor_id;sensor_type;location;lat;lon;timestamp;temperature;humidity
44823;DHT22;51097;51.984;5.650;2023-04-07T00:01:21;12.80;99.90
44823;DHT22;51097;51.984;5.650;2023-04-07T00:03:47;12.80;99.90
44823;DHT22;51097;51.984;5.650;2023-04-07T00:06:13;12.90;99.90
44823;DHT22;51097;51.984;5.650;2023-04-07T00:08:38;12.80;99.90
44823;DHT22;51097;51.984;5.650;2023-04-07T00:11:04;12.90;99.90
44823;DHT22;51097;51.984;5.650;2023-04-07T00:13:30;12.90;99.90
44823;DHT22;51097;51.984;5.650;2023-04-07T00:15:56;13.00;99.90
44823;DHT22;51097;51.984;5.650;2023-04-07T00:18:21;12.90;99.90
44823;DHT22;51097;51.984;5.650;2023-04-07T00:20:47;12.90;99.90
44823;DHT22;51097;51.984;5.650;2023-04-07T00:23:13;12.90;99.90
44823;DHT22;51097;51.984;5.650;2023-04-07T00:25:38;12.90;99.90
44823;DHT22;51097;51.984;5.650;2023-04-07T00:28:04;12.90;99.90
44823;DHT22;51097;51.984;5.650;2023-04-07T00:30:29;12.90;99.90
44823;DHT22;51097;51.984;5.650;2023-04-07T00:32:55;12.90;99.90
44823;DHT22;51097;51.984;5.650;2023-04-07T00:35:21;12.80;99.90
44823;DHT22;51097;51.984;5.650;2023-04-07T00:37:46;12.80;99.90
44823;DHT22;51097;51.984;5.650;2023-04-07T00:40:12;12.70;99.90
44823;DHT22;51097;51.984;5.650;2023-04-07T00:42:37;12.70;99.90
44823;DHT22;51097;51.984;5.650;2023-04-07T00:45:03;12.70;99.90
44823;DHT22;51097;51.984;5.650;2023-04-07T00:47:29;12.60;99.90
44823;DHT22;51097;51.984;5.650;2023-04-07T00:49:55;12.60;99.90
44823;DHT22;51097;51.984;5.650;2023-04-07T00:52:21;12.70;99.90
44823;DHT22;51097;51.984;5.650;2023-04-07T00:54:53;12.60;99.90
44823;DHT22;51097;51.984;5.650;2023-04-07T00:57:19;12.60;99.90
44823;DHT22;51097;51.984;5.650;2023-04-07T00:59:45;12.60;99.90
44823;DHT22;51097;51.984;5.650;2023-04-07T01:02:17;12.70;99.90
44823;DHT22;51097;51.984;5.650;2023-04-07T01:07:34;12.70;99.90
44823;DHT22;51097;51.984;5.650;2023-04-07T01:10:04;12.70;99.90
44823;DHT22;51097;51.984;5.650;2023-04-07T01:12:45;12.70;99.90
44823;DHT22;51097;51.984;5.650;2023-04-07T01:15:12;12.80;99.90
44823;DHT22;51097;51.984;5.650;2023-04-07T01:17:44;12.80;99.90
44823;DHT22;51097;51.984;5.650;2023-04-07T01:20:15;12.70;99.90
44823;DHT22;51097;51.984;5.650;2023-04-07T01:22:49;12.70;99.90
44823;DHT22;51097;51.984;5.650;2023-04-07T01:25:46;12.70;99.90
44823;DHT22;51097;51.984;5.650;2023-04-07T01:31:27;12.60;99.90
44823;DHT22;51097;51.984;5.650;2023-04-07T01:33:54;12.50;99.90
44823;DHT22;51097;51.984;5.650;2023-04-07T01:36:21;12.60;99.90
44823;DHT22;51097;51.984;5.650;2023-04-07T01:38:48;12.50;99.90
44823;DHT22;51097;51.984;5.650;2023-04-07T01:41:16;12.50;99.90
44823;DHT22;51097;51.984;5.650;2023-04-07T01:43:43;12.60;99.90
44823;DHT22;51097;51.984;5.650;2023-04-07T01:46:09;12.50;99.90
44823;DHT22;51097;51.984;5.650;2023-04-07T01:48:36;12.50;99.90
44823;DHT22;51097;51.984;5.650;2023-04-07T01:51:03;12.50;99.90
44823;DHT22;51097;51.984;5.650;2023-04-07T01:53:30;12.60;99.90
44823;DHT22;51097;51.984;5.650;2023-04-07T01:55:56;12.50;99.90
44823;DHT22;51097;51.984;5.650;2023-04-07T01:58:22;12.60;99.90
44823;DHT22;51097;51.984;5.650;2023-04-07T02:00:48;12.40;99.90
44823;DHT22;51097;51.984;5.650;2023-04-07T02:03:19;12.60;99.90
44823;DHT22;51097;51.984;5.650;2023-04-07T02:05:49;12.50;99.90
44823;DHT22;51097;51.984;5.650;2023-04-07T02:08:17;12.40;99.90
44823;DHT22;51097;51.984;5.650;2023-04-07T02:10:46;12.50;99.90
44823;DHT22;51097;51.984;5.650;2023-04-07T02:13:15;12.50;99.90
44823;DHT22;51097;51.984;5.650;2023-04-07T02:15:42;12.50;99.90
44823;DHT22;51097;51.984;5.650;2023-04-07T02:18:10;12.40;99.90
44823;DHT22;51097;51.984;5.650;2023-04-07T02:20:37;12.40;99.90
44823;DHT22;51097;51.984;5.650;2023-04-07T02:23:09;12.50;99.90
44823;DHT22;51097;51.984;5.650;2023-04-07T02:25:35;12.50;99.90
44823;DHT22;51097;51.984;5.650;2023-04-07T02:28:03;12.60;99.90
44823;DHT22;51097;51.984;5.650;2023-04-07T02:30:30;12.50;99.90
44823;DHT22;51097;51.984;5.650;2023-04-07T02:32:56;12.50;99.90
44823;DHT22;51097;51.984;5.650;2023-04-07T02:35:22;12.60;99.90
44823;DHT22;51097;51.984;5.650;2023-04-07T02:37:47;12.50;99.90
44823;DHT22;51097;51.984;5.650;2023-04-07T02:40:13;12.50;99.90
44823;DHT22;51097;51.984;5.650;2023-04-07T02:42:39;12.40;99.90
44823;DHT22;51097;51.984;5.650;2023-04-07T02:45:05;12.40;99.90
44823;DHT22;51097;51.984;5.650;2023-04-07T02:47:32;12.50;99.90
44823;DHT22;51097;51.984;5.650;2023-04-07T02:49:58;12.50;99.90
44823;DHT22;51097;51.984;5.650;2023-04-07T02:52:23;12.50;99.90
44823;DHT22;51097;51.984;5.650;2023-04-07T02:54:49;12.50;99.90
44823;DHT22;51097;51.984;5.650;2023-04-07T02:57:14;12.40;99.90
44823;DHT22;51097;51.984;5.650;2023-04-07T02:59:40;12.50;99.90
44823;DHT22;51097;51.984;5.650;2023-04-07T03:02:06;12.50;99.90
44823;DHT22;51097;51.984;5.650;2023-04-07T03:04:31;12.40;99.90
44823;DHT22;51097;51.984;5.650;2023-04-07T03:06:57;12.40;99.90
44823;DHT22;51097;51.984;5.650;2023-04-07T03:09:23;12.40;99.90
44823;DHT22;51097;51.984;5.650;2023-04-07T03:11:48;12.50;99.90
44823;DHT22;51097;51.984;5.650;2023-04-07T03:14:14;12.50;99.90
44823;DHT22;51097;51.984;5.650;2023-04-07T03:16:40;12.50;99.90
44823;DHT22;51097;51.984;5.650;2023-04-07T03:19:06;12.40;99.90
44823;DHT22;51097;51.984;5.650;2023-04-07T03:21:32;12.60;99.90
44823;DHT22;51097;51.984;5.650;2023-04-07T03:23:57;12.60;99.90
44823;DHT22;51097;51.984;5.650;2023-04-07T03:26:23;12.50;99.90
44823;DHT22;51097;51.984;5.650;2023-04-07T03:28:48;12.40;99.90
44823;DHT22;51097;51.984;5.650;2023-04-07T03:31:14;12.50;99.90
44823;DHT22;51097;51.984;5.650;2023-04-07T03:33:40;12.40;99.90
44823;DHT22;51097;51.984;5.650;2023-04-07T03:36:06;12.40;99.90
44823;DHT22;51097;51.984;5.650;2023-04-07T03:38:32;12.50;99.90
44823;DHT22;51097;51.984;5.650;2023-04-07T03:40:58;12.50;99.90
44823;DHT22;51097;51.984;5.650;2023-04-07T03:43:23;12.50;99.90
44823;DHT22;51097;51.984;5.650;2023-04-07T03:45:51;12.40;99.90
44823;DHT22;51097;51.984;5.650;2023-04-07T03:48:16;12.40;99.90
44823;DHT22;51097;51.984;5.650;2023-04-07T03:50:42;12.50;99.90
44823;DHT22;51097;51.984;5.650;2023-04-07T03:53:08;12.50;99.90
44823;DHT22;51097;51.984;5.650;2023-04-07T03:55:34;12.50;99.90
44823;DHT22;51097;51.984;5.650;2023-04-07T03:58:00;12.50;99.90
44823;DHT22;51097;51.984;5.650;2023-04-07T04:00:26;12.50;99.90
44823;DHT22;51097;51.984;5.650;2023-04-07T04:02:51;12.50;99.90
44823;DHT22;51097;51.984;5.650;2023-04-07T04:05:17;12.50;99.90
44823;DHT22;51097;51.984;5.650;2023-04-07T04:07:43;12.50;99.90
44823;DHT22;51097;51.984;5.650;2023-04-07T04:10:08;12.60;99.90
44823;DHT22;51097;51.984;5.650;2023-04-07T04:12:34;12.50;99.90
44823;DHT22;51097;51.984;5.650;2023-04-07T04:15:00;12.50;99.90
44823;DHT22;51097;51.984;5.650;2023-04-07T04:17:26;12.60;99.90
44823;DHT22;51097;51.984;5.650;2023-04-07T04:19:51;12.60;99.90
44823;DHT22;51097;51.984;5.650;2023-04-07T04:22:18;12.50;99.90
44823;DHT22;51097;51.984;5.650;2023-04-07T04:24:44;12.40;99.90
44823;DHT22;51097;51.984;5.650;2023-04-07T04:27:09;12.50;99.90
44823;DHT22;51097;51.984;5.650;2023-04-07T04:29:35;12.50;99.90
44823;DHT22;51097;51.984;5.650;2023-04-07T04:32:01;12.50;99.90
44823;DHT22;51097;51.984;5.650;2023-04-07T04:34:26;12.50;99.90
44823;DHT22;51097;51.984;5.650;2023-04-07T04:36:52;12.40;99.90
44823;DHT22;51097;51.984;5.650;2023-04-07T04:39:17;12.60;99.90
44823;DHT22;51097;51.984;5.650;2023-04-07T04:41:44;12.50;99.90
44823;DHT22;51097;51.984;5.650;2023-04-07T04:44:09;12.50;99.90
44823;DHT22;51097;51.984;5.650;2023-04-07T04:46:35;12.50;99.90
44823;DHT22;51097;51.984;5.650;2023-04-07T04:49:01;12.40;99.90
44823;DHT22;51097;51.984;5.650;2023-04-07T04:51:26;12.50;99.90
44823;DHT22;51097;51.984;5.650;2023-04-07T04:53:52;12.60;99.90
44823;DHT22;51097;51.984;5.650;2023-04-07T04:56:18;12.60;99.90
44823;DHT22;51097;51.984;5.650;2023-04-07T04:58:43;12.50;99.90
44823;DHT22;51097;51.984;5.650;2023-04-07T05:01:12;12.50;99.90
44823;DHT22;51097;51.984;5.650;2023-04-07T05:03:38;12.50;99.90
44823;DHT22;51097;51.984;5.650;2023-04-07T05:06:03;12.60;99.90
44823;DHT22;51097;51.984;5.650;2023-04-07T05:08:29;12.60;99.90
44823;DHT22;51097;51.984;5.650;2023-04-07T05:10:55;12.50;99.90
44823;DHT22;51097;51.984;5.650;2023-04-07T05:13:21;12.50;99.90
44823;DHT22;51097;51.984;5.650;2023-04-07T05:15:46;12.50;99.90
44823;DHT22;51097;51.984;5.650;2023-04-07T05:18:12;12.60;99.90
44823;DHT22;51097;51.984;5.650;2023-04-07T05:20:38;12.50;99.90
44823;DHT22;51097;51.984;5.650;2023-04-07T05:23:03;12.50;99.90
44823;DHT22;51097;51.984;5.650;2023-04-07T05:25:29;12.50;99.90
44823;DHT22;51097;51.984;5.650;2023-04-07T05:27:57;12.40;99.90
44823;DHT22;51097;51.984;5.650;2023-04-07T05:30:22;12.50;99.90
44823;DHT22;51097;51.984;5.650;2023-04-07T05:32:48;12.50;99.90
44823;DHT22;51097;51.984;5.650;2023-04-07T05:35:14;12.50;99.90
44823;DHT22;51097;51.984;5.650;2023-04-07T05:37:39;12.50;99.90
44823;DHT22;51097;51.984;5.650;2023-04-07T05:40:06;12.50;99.90
44823;DHT22;51097;51.984;5.650;2023-04-07T05:42:32;12.50;99.90
44823;DHT22;51097;51.984;5.650;2023-04-07T05:44:57;12.60;99.90
44823;DHT22;51097;51.984;5.650;2023-04-07T05:47:23;12.50;99.90
44823;DHT22;51097;51.984;5.650;2023-04-07T05:49:51;12.60;99.90
44823;DHT22;51097;51.984;5.650;2023-04-07T05:52:17;12.50;99.90
44823;DHT22;51097;51.984;5.650;2023-04-07T05:54:42;12.70;99.90
44823;DHT22;51097;51.984;5.650;2023-04-07T05:57:08;12.40;99.90
44823;DHT22;51097;51.984;5.650;2023-04-07T05:59:34;12.50;99.90
44823;DHT22;51097;51.984;5.650;2023-04-07T06:02:03;12.50;99.90
44823;DHT22;51097;51.984;5.650;2023-04-07T06:04:29;12.50;99.90
44823;DHT22;51097;51.984;5.650;2023-04-07T06:06:54;12.40;99.90
44823;DHT22;51097;51.984;5.650;2023-04-07T06:09:23;12.50;99.90
44823;DHT22;51097;51.984;5.650;2023-04-07T06:11:49;12.60;99.90
44823;DHT22;51097;51.984;5.650;2023-04-07T06:14:16;12.60;99.90
44823;DHT22;51097;51.984;5.650;2023-04-07T06:16:42;12.60;99.90
44823;DHT22;51097;51.984;5.650;2023-04-07T06:19:08;12.50;99.90
44823;DHT22;51097;51.984;5.650;2023-04-07T06:21:33;12.50;99.90
44823;DHT22;51097;51.984;5.650;2023-04-07T06:24:00;12.50;99.90
44823;DHT22;51097;51.984;5.650;2023-04-07T06:26:25;12.50;99.90
44823;DHT22;51097;51.984;5.650;2023-04-07T06:28:52;12.40;99.90
44823;DHT22;51097;51.984;5.650;2023-04-07T06:31:17;12.50;99.90
44823;DHT22;51097;51.984;5.650;2023-04-07T06:33:51;12.60;99.90
44823;DHT22;51097;51.984;5.650;2023-04-07T06:36:27;12.70;99.90
44823;DHT22;51097;51.984;5.650;2023-04-07T06:39:10;12.70;99.90
44823;DHT22;51097;51.984;5.650;2023-04-07T06:41:57;12.80;99.90
44823;DHT22;51097;51.984;5.650;2023-04-07T06:44:23;12.80;99.90
44823;DHT22;51097;51.984;5.650;2023-04-07T06:46:48;12.80;99.90
44823;DHT22;51097;51.984;5.650;2023-04-07T06:49:32;12.80;99.90
44823;DHT22;51097;51.984;5.650;2023-04-07T06:55:44;12.90;99.90
44823;DHT22;51097;51.984;5.650;2023-04-07T06:58:17;12.90;99.90
44823;DHT22;51097;51.984;5.650;2023-04-07T07:00:43;13.00;99.90
44823;DHT22;51097;51.984;5.650;2023-04-07T07:03:09;13.00;99.90
44823;DHT22;51097;51.984;5.650;2023-04-07T07:05:34;13.00;99.90
44823;DHT22;51097;51.984;5.650;2023-04-07T07:08:00;13.00;99.90
44823;DHT22;51097;51.984;5.650;2023-04-07T07:10:25;13.10;99.90
44823;DHT22;51097;51.984;5.650;2023-04-07T07:12:51;13.00;99.90
44823;DHT22;51097;51.984;5.650;2023-04-07T07:15:17;12.90;99.90
44823;DHT22;51097;51.984;5.650;2023-04-07T07:17:43;12.90;99.90
44823;DHT22;51097;51.984;5.650;2023-04-07T07:20:09;12.90;99.90
44823;DHT22;51097;51.984;5.650;2023-04-07T07:22:35;13.00;99.90
44823;DHT22;51097;51.984;5.650;2023-04-07T07:25:00;13.10;99.90
44823;DHT22;51097;51.984;5.650;2023-04-07T07:27:26;13.30;99.90
44823;DHT22;51097;51.984;5.650;2023-04-07T07:29:52;13.40;99.90
44823;DHT22;51097;51.984;5.650;2023-04-07T07:32:17;13.30;99.90
44823;DHT22;51097;51.984;5.650;2023-04-07T07:34:43;13.50;99.90
44823;DHT22;51097;51.984;5.650;2023-04-07T07:37:08;13.40;99.90
44823;DHT22;51097;51.984;5.650;2023-04-07T07:39:34;13.40;99.90
44823;DHT22;51097;51.984;5.650;2023-04-07T07:41:59;13.50;99.90
44823;DHT22;51097;51.984;5.650;2023-04-07T07:44:26;13.50;99.90
44823;DHT22;51097;51.984;5.650;2023-04-07T07:46:51;13.40;99.90
44823;DHT22;51097;51.984;5.650;2023-04-07T07:49:17;13.50;99.90
44823;DHT22;51097;51.984;5.650;2023-04-07T07:51:42;13.60;99.90
44823;DHT22;51097;51.984;5.650;2023-04-07T07:54:08;13.80;99.90
44823;DHT22;51097;51.984;5.650;2023-04-07T07:56:34;13.80;99.90
44823;DHT22;51097;51.984;5.650;2023-04-07T07:59:00;13.80;99.90
44823;DHT22;51097;51.984;5.650;2023-04-07T08:01:25;13.70;99.90
44823;DHT22;51097;51.984;5.650;2023-04-07T08:03:51;13.80;99.90
44823;DHT22;51097;51.984;5.650;2023-04-07T08:06:17;13.90;99.90
44823;DHT22;51097;51.984;5.650;2023-04-07T08:08:42;14.00;99.90
44823;DHT22;51097;51.984;5.650;2023-04-07T08:11:08;14.00;99.90
44823;DHT22;51097;51.984;5.650;2023-04-07T08:13:34;13.90;99.90
44823;DHT22;51097;51.984;5.650;2023-04-07T08:15:59;13.90;99.90
44823;DHT22;51097;51.984;5.650;2023-04-07T08:18:25;14.00;99.90
44823;DHT22;51097;51.984;5.650;2023-04-07T08:20:50;14.20;99.90
44823;DHT22;51097;51.984;5.650;2023-04-07T08:23:17;14.00;99.90
44823;DHT22;51097;51.984;5.650;2023-04-07T08:25:42;14.00;99.90
44823;DHT22;51097;51.984;5.650;2023-04-07T08:28:08;14.40;99.90
44823;DHT22;51097;51.984;5.650;2023-04-07T08:30:33;14.20;99.90
44823;DHT22;51097;51.984;5.650;2023-04-07T08:32:59;14.10;99.90
44823;DHT22;51097;51.984;5.650;2023-04-07T08:35:25;14.20;99.90
44823;DHT22;51097;51.984;5.650;2023-04-07T08:37:50;14.10;99.90
44823;DHT22;51097;51.984;5.650;2023-04-07T08:40:16;14.00;99.90
44823;DHT22;51097;51.984;5.650;2023-04-07T08:42:45;14.20;99.90
44823;DHT22;51097;51.984;5.650;2023-04-07T08:45:11;14.20;99.90
44823;DHT22;51097;51.984;5.650;2023-04-07T08:47:39;14.20;99.90
44823;DHT22;51097;51.984;5.650;2023-04-07T08:50:08;14.10;99.90
44823;DHT22;51097;51.984;5.650;2023-04-07T08:52:54;14.30;99.90
44823;DHT22;51097;51.984;5.650;2023-04-07T08:55:21;14.40;99.90
44823;DHT22;51097;51.984;5.650;2023-04-07T08:57:47;14.50;99.90
44823;DHT22;51097;51.984;5.650;2023-04-07T09:00:13;14.60;99.90
44823;DHT22;51097;51.984;5.650;2023-04-07T09:02:41;14.60;99.90
44823;DHT22;51097;51.984;5.650;2023-04-07T09:05:11;14.70;99.90
44823;DHT22;51097;51.984;5.650;2023-04-07T09:07:38;14.70;99.90
44823;DHT22;51097;51.984;5.650;2023-04-07T09:10:10;14.70;99.90
44823;DHT22;51097;51.984;5.650;2023-04-07T09:12:36;14.90;99.90
44823;DHT22;51097;51.984;5.650;2023-04-07T09:15:04;14.80;99.90
44823;DHT22;51097;51.984;5.650;2023-04-07T09:17:30;14.80;99.90
44823;DHT22;51097;51.984;5.650;2023-04-07T09:19:57;14.80;99.90
44823;DHT22;51097;51.984;5.650;2023-04-07T09:25:17;14.80;99.90
44823;DHT22;51097;51.984;5.650;2023-04-07T09:28:01;14.70;99.90
44823;DHT22;51097;51.984;5.650;2023-04-07T09:30:36;14.90;99.90
44823;DHT22;51097;51.984;5.650;2023-04-07T09:33:02;14.90;99.90
44823;DHT22;51097;51.984;5.650;2023-04-07T09:35:28;15.00;99.90
44823;DHT22;51097;51.984;5.650;2023-04-07T09:38:08;15.20;99.90
44823;DHT22;51097;51.984;5.650;2023-04-07T09:40:34;15.20;99.90
44823;DHT22;51097;51.984;5.650;2023-04-07T09:43:02;15.30;99.90
44823;DHT22;51097;51.984;5.650;2023-04-07T09:45:29;15.30;99.90
44823;DHT22;51097;51.984;5.650;2023-04-07T09:48:07;15.40;99.90
44823;DHT22;51097;51.984;5.650;2023-04-07T09:50:34;15.50;99.90
44823;DHT22;51097;51.984;5.650;2023-04-07T09:53:00;15.60;99.90
44823;DHT22;51097;51.984;5.650;2023-04-07T09:55:27;15.80;99.90
44823;DHT22;51097;51.984;5.650;2023-04-07T09:57:54;15.70;99.90
44823;DHT22;51097;51.984;5.650;2023-04-07T10:00:20;15.80;99.90
44823;DHT22;51097;51.984;5.650;2023-04-07T10:02:46;15.70;99.90
44823;DHT22;51097;51.984;5.650;2023-04-07T10:05:13;15.80;99.90
44823;DHT22;51097;51.984;5.650;2023-04-07T10:07:39;15.70;99.90
44823;DHT22;51097;51.984;5.650;2023-04-07T10:10:07;15.80;99.90
44823;DHT22;51097;51.984;5.650;2023-04-07T10:12:39;15.80;99.90
44823;DHT22;51097;51.984;5.650;2023-04-07T10:15:06;15.70;99.90
44823;DHT22;51097;51.984;5.650;2023-04-07T10:17:32;15.70;99.90
44823;DHT22;51097;51.984;5.650;2023-04-07T10:20:00;15.70;99.90
44823;DHT22;51097;51.984;5.650;2023-04-07T10:22:26;15.60;99.90
44823;DHT22;51097;51.984;5.650;2023-04-07T10:25:10;15.80;99.90
44823;DHT22;51097;51.984;5.650;2023-04-07T10:27:55;15.70;99.90
44823;DHT22;51097;51.984;5.650;2023-04-07T10:30:24;15.60;99.90
44823;DHT22;51097;51.984;5.650;2023-04-07T10:32:52;15.60;99.90
44823;DHT22;51097;51.984;5.650;2023-04-07T10:35:18;15.80;99.90
44823;DHT22;51097;51.984;5.650;2023-04-07T10:38:09;15.70;99.90
44823;DHT22;51097;51.984;5.650;2023-04-07T10:40:36;15.80;99.90
44823;DHT22;51097;51.984;5.650;2023-04-07T10:43:03;15.70;99.90
44823;DHT22;51097;51.984;5.650;2023-04-07T10:48:14;15.70;99.90
44823;DHT22;51097;51.984;5.650;2023-04-07T10:50:41;15.80;99.90
44823;DHT22;51097;51.984;5.650;2023-04-07T10:53:11;15.60;99.90
44823;DHT22;51097;51.984;5.650;2023-04-07T10:55:42;15.60;99.90
44823;DHT22;51097;51.984;5.650;2023-04-07T11:03:40;15.70;99.90
44823;DHT22;51097;51.984;5.650;2023-04-07T11:06:11;15.70;99.90
44823;DHT22;51097;51.984;5.650;2023-04-07T11:11:03;15.50;99.90
44823;DHT22;51097;51.984;5.650;2023-04-07T11:16:06;15.50;99.90
44823;DHT22;51097;51.984;5.650;2023-04-07T11:18:33;15.50;99.90
44823;DHT22;51097;51.984;5.650;2023-04-07T11:20:59;15.70;99.90
44823;DHT22;51097;51.984;5.650;2023-04-07T11:23:25;15.70;99.90
44823;DHT22;51097;51.984;5.650;2023-04-07T11:25:54;15.50;99.90
44823;DHT22;51097;51.984;5.650;2023-04-07T11:28:24;15.70;99.90
44823;DHT22;51097;51.984;5.650;2023-04-07T11:30:53;15.50;99.90
44823;DHT22;51097;51.984;5.650;2023-04-07T11:33:24;15.50;99.90
44823;DHT22;51097;51.984;5.650;2023-04-07T11:36:08;15.50;99.90
44823;DHT22;51097;51.984;5.650;2023-04-07T11:38:35;15.60;99.90
44823;DHT22;51097;51.984;5.650;2023-04-07T11:41:13;15.60;99.90
44823;DHT22;51097;51.984;5.650;2023-04-07T11:43:39;15.60;99.90
44823;DHT22;51097;51.984;5.650;2023-04-07T11:46:10;15.80;99.90
44823;DHT22;51097;51.984;5.650;2023-04-07T11:48:38;15.80;99.90
44823;DHT22;51097;51.984;5.650;2023-04-07T11:51:04;15.80;99.90
44823;DHT22;51097;51.984;5.650;2023-04-07T11:53:32;15.80;99.90
44823;DHT22;51097;51.984;5.650;2023-04-07T11:56:07;16.00;99.90
44823;DHT22;51097;51.984;5.650;2023-04-07T11:58:35;16.00;99.90
44823;DHT22;51097;51.984;5.650;2023-04-07T12:01:02;16.00;99.90
44823;DHT22;51097;51.984;5.650;2023-04-07T12:03:32;16.10;99.90
44823;DHT22;51097;51.984;5.650;2023-04-07T12:05:58;15.90;99.90
44823;DHT22;51097;51.984;5.650;2023-04-07T12:08:41;16.10;99.90
44823;DHT22;51097;51.984;5.650;2023-04-07T12:11:07;16.10;99.90
44823;DHT22;51097;51.984;5.650;2023-04-07T12:13:34;16.00;99.90
44823;DHT22;51097;51.984;5.650;2023-04-07T12:16:00;16.10;99.90
44823;DHT22;51097;51.984;5.650;2023-04-07T12:18:26;16.20;99.90
44823;DHT22;51097;51.984;5.650;2023-04-07T12:20:52;16.00;99.90
44823;DHT22;51097;51.984;5.650;2023-04-07T12:23:18;16.10;99.90
44823;DHT22;51097;51.984;5.650;2023-04-07T12:25:44;15.90;99.90
44823;DHT22;51097;51.984;5.650;2023-04-07T12:28:09;16.00;99.90
44823;DHT22;51097;51.984;5.650;2023-04-07T12:30:35;15.90;99.90
44823;DHT22;51097;51.984;5.650;2023-04-07T12:33:01;15.90;99.90
44823;DHT22;51097;51.984;5.650;2023-04-07T12:35:28;16.10;99.90
44823;DHT22;51097;51.984;5.650;2023-04-07T12:37:54;16.00;99.90
44823;DHT22;51097;51.984;5.650;2023-04-07T12:40:24;16.00;99.90
44823;DHT22;51097;51.984;5.650;2023-04-07T12:42:50;16.00;99.90
44823;DHT22;51097;51.984;5.650;2023-04-07T12:45:16;16.00;99.90
44823;DHT22;51097;51.984;5.650;2023-04-07T12:47:43;16.00;99.90
44823;DHT22;51097;51.984;5.650;2023-04-07T12:50:09;16.10;99.90
44823;DHT22;51097;51.984;5.650;2023-04-07T12:52:35;16.30;99.90
44823;DHT22;51097;51.984;5.650;2023-04-07T12:55:01;16.20;99.90
44823;DHT22;51097;51.984;5.650;2023-04-07T12:57:27;16.30;99.90
44823;DHT22;51097;51.984;5.650;2023-04-07T12:59:53;16.20;99.90
44823;DHT22;51097;51.984;5.650;2023-04-07T13:02:19;16.30;99.90
44823;DHT22;51097;51.984;5.650;2023-04-07T13:04:45;16.30;99.90
44823;DHT22;51097;51.984;5.650;2023-04-07T13:07:12;16.40;99.90
44823;DHT22;51097;51.984;5.650;2023-04-07T13:09:38;16.20;99.90
44823;DHT22;51097;51.984;5.650;2023-04-07T13:12:05;16.40;99.90
44823;DHT22;51097;51.984;5.650;2023-04-07T13:14:31;16.40;99.90
44823;DHT22;51097;51.984;5.650;2023-04-07T13:16:57;16.50;99.90
44823;DHT22;51097;51.984;5.650;2023-04-07T13:19:22;16.50;99.90
44823;DHT22;51097;51.984;5.650;2023-04-07T13:21:48;16.50;99.90
44823;DHT22;51097;51.984;5.650;2023-04-07T13:24:13;16.60;99.90
44823;DHT22;51097;51.984;5.650;2023-04-07T13:26:39;16.60;99.90
44823;DHT22;51097;51.984;5.650;2023-04-07T13:29:04;16.40;99.90
44823;DHT22;51097;51.984;5.650;2023-04-07T13:31:30;16.50;99.90
44823;DHT22;51097;51.984;5.650;2023-04-07T13:33:56;16.50;99.90
44823;DHT22;51097;51.984;5.650;2023-04-07T13:36:21;16.50;99.90
44823;DHT22;51097;51.984;5.650;2023-04-07T13:38:47;16.50;99.90
44823;DHT22;51097;51.984;5.650;2023-04-07T13:41:12;16.50;99.90
44823;DHT22;51097;51.984;5.650;2023-04-07T13:43:38;16.60;99.90
44823;DHT22;51097;51.984;5.650;2023-04-07T13:46:03;16.50;99.90
44823;DHT22;51097;51.984;5.650;2023-04-07T13:48:29;16.50;99.90
44823;DHT22;51097;51.984;5.650;2023-04-07T13:50:54;16.60;99.90
44823;DHT22;51097;51.984;5.650;2023-04-07T13:53:20;16.60;99.90
44823;DHT22;51097;51.984;5.650;2023-04-07T13:55:46;16.70;99.90
44823;DHT22;51097;51.984;5.650;2023-04-07T13:58:11;16.70;99.90
44823;DHT22;51097;51.984;5.650;2023-04-07T14:00:37;16.80;99.90
44823;DHT22;51097;51.984;5.650;2023-04-07T14:03:04;16.90;99.90
44823;DHT22;51097;51.984;5.650;2023-04-07T14:05:30;17.10;99.90
44823;DHT22;51097;51.984;5.650;2023-04-07T14:07:55;17.10;99.90
44823;DHT22;51097;51.984;5.650;2023-04-07T14:10:21;17.20;99.90
44823;DHT22;51097;51.984;5.650;2023-04-07T14:12:46;17.20;99.90
44823;DHT22;51097;51.984;5.650;2023-04-07T14:15:12;17.10;99.90
44823;DHT22;51097;51.984;5.650;2023-04-07T14:17:38;17.20;99.90
44823;DHT22;51097;51.984;5.650;2023-04-07T14:20:04;17.30;99.90
44823;DHT22;51097;51.984;5.650;2023-04-07T14:22:30;17.40;99.90
44823;DHT22;51097;51.984;5.650;2023-04-07T14:24:55;17.60;99.90
44823;DHT22;51097;51.984;5.650;2023-04-07T14:27:21;17.50;99.90
44823;DHT22;51097;51.984;5.650;2023-04-07T14:29:47;17.50;99.90
44823;DHT22;51097;51.984;5.650;2023-04-07T14:32:13;17.60;99.90
44823;DHT22;51097;51.984;5.650;2023-04-07T14:34:38;17.40;99.90
44823;DHT22;51097;51.984;5.650;2023-04-07T14:37:04;17.50;99.90
44823;DHT22;51097;51.984;5.650;2023-04-07T14:39:30;17.50;99.90
44823;DHT22;51097;51.984;5.650;2023-04-07T14:41:56;17.60;99.90
44823;DHT22;51097;51.984;5.650;2023-04-07T14:44:21;17.50;99.90
44823;DHT22;51097;51.984;5.650;2023-04-07T14:46:47;17.40;99.90
44823;DHT22;51097;51.984;5.650;2023-04-07T14:49:13;17.40;99.90
44823;DHT22;51097;51.984;5.650;2023-04-07T14:51:39;17.40;99.90
44823;DHT22;51097;51.984;5.650;2023-04-07T14:54:04;17.30;99.90
44823;DHT22;51097;51.984;5.650;2023-04-07T14:56:30;17.20;99.90
44823;DHT22;51097;51.984;5.650;2023-04-07T14:58:55;17.20;99.90
44823;DHT22;51097;51.984;5.650;2023-04-07T15:01:21;17.20;99.90
44823;DHT22;51097;51.984;5.650;2023-04-07T15:03:46;17.20;99.90
44823;DHT22;51097;51.984;5.650;2023-04-07T15:06:12;17.20;99.90
44823;DHT22;51097;51.984;5.650;2023-04-07T15:08:39;17.20;99.90
44823;DHT22;51097;51.984;5.650;2023-04-07T15:11:08;17.20;99.90
44823;DHT22;51097;51.984;5.650;2023-04-07T15:13:34;17.10;99.90
44823;DHT22;51097;51.984;5.650;2023-04-07T15:16:13;17.00;99.90
44823;DHT22;51097;51.984;5.650;2023-04-07T15:18:41;17.00;99.90
44823;DHT22;51097;51.984;5.650;2023-04-07T15:21:08;17.00;99.90
44823;DHT22;51097;51.984;5.650;2023-04-07T15:23:38;16.90;99.90
44823;DHT22;51097;51.984;5.650;2023-04-07T15:26:05;16.80;99.90
44823;DHT22;51097;51.984;5.650;2023-04-07T15:28:30;16.70;99.90
44823;DHT22;51097;51.984;5.650;2023-04-07T15:30:56;16.60;99.90
44823;DHT22;51097;51.984;5.650;2023-04-07T15:33:22;16.60;99.90
44823;DHT22;51097;51.984;5.650;2023-04-07T15:35:48;16.70;99.90
44823;DHT22;51097;51.984;5.650;2023-04-07T15:38:13;16.50;99.90
44823;DHT22;51097;51.984;5.650;2023-04-07T15:40:40;16.50;99.90
44823;DHT22;51097;51.984;5.650;2023-04-07T15:43:06;16.50;99.90
44823;DHT22;51097;51.984;5.650;2023-04-07T15:45:36;16.50;99.90
44823;DHT22;51097;51.984;5.650;2023-04-07T15:48:04;16.70;99.90
44823;DHT22;51097;51.984;5.650;2023-04-07T15:50:29;16.60;99.90
44823;DHT22;51097;51.984;5.650;2023-04-07T15:52:56;16.50;99.90
44823;DHT22;51097;51.984;5.650;2023-04-07T15:55:21;16.40;99.90